TimeCDT,TemperatureF,Dew PointF,Humidity,Sea Level PressureIn,VisibilityMPH,Wind Direction,Wind SpeedMPH,Gust SpeedMPH,PrecipitationIn,Events,Conditions,WindDirDegrees,DateUTC
12:15 AM,57.2,55.4,94,29.98,10.0,ENE,3.5,-,N/A,,Overcast,60,2014-03-29 05:15:00
12:35 AM,57.2,53.6,88,29.95,10.0,NNE,3.5,-,N/A,,Overcast,30,2014-03-29 05:35:00
12:55 AM,57.2,55.4,94,29.94,10.0,Calm,Calm,-,N/A,,Mostly Cloudy,0,2014-03-29 05:55:00
1:15 AM,57.2,55.4,94,29.95,10.0,Calm,Calm,-,N/A,,Overcast,0,2014-03-29 06:15:00
1:35 AM,57.2,55.4,94,29.94,10.0,Calm,Calm,-,N/A,,Overcast,0,2014-03-29 06:35:00
1:55 AM,57.2,55.4,94,29.92,10.0,Calm,Calm,-,N/A,,Mostly Cloudy,0,2014-03-29 06:55:00
2:15 AM,59.0,55.4,88,29.89,10.0,East,4.6,-,N/A,,Mostly Cloudy,90,2014-03-29 07:15:00
2:35 AM,59.0,55.4,88,29.89,10.0,ENE,3.5,-,N/A,,Mostly Cloudy,60,2014-03-29 07:35:00
2:55 AM,59.0,55.4,88,29.89,10.0,Calm,Calm,-,N/A,,Overcast,0,2014-03-29 07:55:00
3:15 AM,57.2,55.4,94,29.88,10.0,ENE,3.5,-,N/A,,Overcast,60,2014-03-29 08:15:00
3:35 AM,59.0,55.4,88,29.87,10.0,ESE,4.6,-,N/A,,Overcast,120,2014-03-29 08:35:00
3:55 AM,59.0,55.4,88,29.87,10.0,Calm,Calm,-,N/A,,Overcast,0,2014-03-29 08:55:00
4:15 AM,59.0,55.4,88,29.86,10.0,Calm,Calm,-,N/A,,Overcast,0,2014-03-29 09:15:00
4:35 AM,59.0,55.4,88,29.87,10.0,Calm,Calm,-,N/A,,Overcast,0,2014-03-29 09:35:00
4:55 AM,59.0,55.4,88,29.84,10.0,East,3.5,-,N/A,,Overcast,100,2014-03-29 09:55:00
5:15 AM,59.0,57.2,94,29.85,4.0,Calm,Calm,-,N/A,Rain,Light Rain,0,2014-03-29 10:15:00
5:35 AM,57.2,57.2,100,29.84,10.0,Calm,Calm,-,N/A,,Overcast,0,2014-03-29 10:35:00
5:55 AM,59.0,57.2,94,29.84,10.0,Calm,Calm,-,N/A,,Overcast,0,2014-03-29 10:55:00
6:15 AM,57.2,57.2,100,29.82,6.0,Calm,Calm,-,N/A,,Overcast,0,2014-03-29 11:15:00
6:35 AM,57.2,57.2,100,29.81,5.0,Calm,Calm,-,N/A,,Overcast,0,2014-03-29 11:35:00
6:55 AM,57.2,57.2,100,29.82,10.0,Calm,Calm,-,N/A,,Overcast,0,2014-03-29 11:55:00
7:15 AM,57.2,57.2,100,29.83,9.0,Calm,Calm,-,N/A,,Overcast,0,2014-03-29 12:15:00
7:35 AM,57.2,57.2,100,29.82,4.0,Calm,Calm,-,0.01,Rain,Light Rain,0,2014-03-29 12:35:00
7:55 AM,57.2,57.2,100,29.83,3.0,Calm,Calm,-,0.05,Rain,Light Rain,0,2014-03-29 12:55:00
8:15 AM,57.2,57.2,100,29.83,1.8,NNW,3.5,-,0.07,Rain,Light Rain,330,2014-03-29 13:15:00
8:35 AM,57.2,57.2,100,29.82,1.5,North,4.6,-,0.17,Rain,Light Rain,360,2014-03-29 13:35:00
8:55 AM,57.2,57.2,100,29.82,1.5,North,4.6,-,0.24,Rain,Rain,360,2014-03-29 13:55:00
9:15 AM,57.2,57.2,100,29.81,2.5,NNW,3.5,-,0.04,Rain,Rain,330,2014-03-29 14:15:00
9:35 AM,57.2,57.2,100,29.82,2.0,NNW,3.5,-,0.10,Rain,Light Rain,330,2014-03-29 14:35:00
9:55 AM,57.2,57.2,100,29.82,5.0,North,3.5,-,0.11,Rain,Light Rain,350,2014-03-29 14:55:00
10:15 AM,59.0,59.0,100,29.82,2.0,Calm,Calm,-,0.01,Rain,Light Rain,0,2014-03-29 15:15:00
10:35 AM,59.0,59.0,100,29.82,5.0,WNW,5.8,-,0.01,Rain,Light Rain,300,2014-03-29 15:35:00
10:55 AM,60.8,59.0,94,29.83,9.0,West,4.6,-,0.01,Rain,Light Rain,280,2014-03-29 15:55:00
11:15 AM,59.0,59.0,100,29.83,2.0,NNW,4.6,20.7,0.02,Rain,Light Rain,330,2014-03-29 16:15:00
11:35 AM,59.0,55.4,88,29.84,10.0,NNW,10.4,18.4,0.02,,Mostly Cloudy,330,2014-03-29 16:35:00
11:55 AM,59.0,55.4,88,29.84,10.0,WNW,8.1,-,0.02,,Overcast,300,2014-03-29 16:55:00
12:15 PM,60.8,55.4,82,29.85,9.0,North,17.3,27.6,N/A,,Mostly Cloudy,360,2014-03-29 17:15:00
12:35 PM,55.4,50.0,82,29.87,10.0,North,13.8,27.6,N/A,,Mostly Cloudy,350,2014-03-29 17:35:00
12:55 PM,53.6,48.2,82,29.89,10.0,NNW,17.3,34.5,N/A,,Mostly Cloudy,340,2014-03-29 17:55:00
1:15 PM,53.6,46.4,77,29.90,10.0,North,11.5,27.6,N/A,,Overcast,350,2014-03-29 18:15:00
1:35 PM,53.6,44.6,72,29.92,10.0,North,9.2,24.2,N/A,,Overcast,350,2014-03-29 18:35:00
1:55 PM,53.6,44.6,72,29.92,10.0,NNE,15.0,20.7,N/A,,Overcast,20,2014-03-29 18:55:00
2:15 PM,53.6,44.6,72,29.89,10.0,NNE,12.7,20.7,N/A,,Overcast,30,2014-03-29 19:15:00
2:35 PM,55.4,44.6,67,29.92,10.0,NW,8.1,18.4,N/A,,Mostly Cloudy,320,2014-03-29 19:35:00
2:55 PM,55.4,44.6,67,29.94,10.0,NW,11.5,20.7,N/A,,Overcast,320,2014-03-29 19:55:00
3:15 PM,53.6,44.6,72,29.95,10.0,NNW,10.4,26.5,N/A,,Overcast,330,2014-03-29 20:15:00
3:35 PM,51.8,42.8,71,29.97,10.0,NNW,13.8,23.0,N/A,,Overcast,330,2014-03-29 20:35:00
3:55 PM,50.0,42.8,76,29.98,10.0,NNW,17.3,24.2,N/A,,Overcast,340,2014-03-29 20:55:00
4:15 PM,50.0,42.8,76,30.00,10.0,NNW,16.1,24.2,N/A,,Overcast,330,2014-03-29 21:15:00
4:35 PM,48.2,41.0,76,30.01,10.0,North,10.4,21.9,N/A,,Overcast,350,2014-03-29 21:35:00
4:55 PM,48.2,41.0,76,30.02,10.0,NNW,10.4,17.3,N/A,,Overcast,330,2014-03-29 21:55:00
5:15 PM,48.2,41.0,76,30.03,10.0,NW,10.4,17.3,N/A,,Overcast,310,2014-03-29 22:15:00
5:35 PM,48.2,41.0,76,30.04,10.0,NNW,6.9,17.3,N/A,,Overcast,330,2014-03-29 22:35:00
5:55 PM,48.2,41.0,76,30.05,10.0,North,15.0,28.8,N/A,,Overcast,350,2014-03-29 22:55:00
6:15 PM,48.2,39.2,71,30.06,10.0,NNW,9.2,21.9,N/A,,Overcast,340,2014-03-29 23:15:00
6:35 PM,46.4,39.2,76,30.07,10.0,North,12.7,21.9,N/A,,Overcast,360,2014-03-29 23:35:00
6:55 PM,46.4,39.2,76,30.08,10.0,North,10.4,24.2,N/A,,Overcast,350,2014-03-29 23:55:00
7:15 PM,46.4,39.2,76,30.08,10.0,North,8.1,-,N/A,,Overcast,350,2014-03-30 00:15:00
7:35 PM,46.4,39.2,76,30.09,10.0,North,11.5,24.2,N/A,,Overcast,350,2014-03-30 00:35:00
7:55 PM,46.4,39.2,76,30.10,10.0,North,11.5,19.6,N/A,,Overcast,360,2014-03-30 00:55:00
8:15 PM,46.4,39.2,76,30.11,10.0,North,12.7,19.6,N/A,,Overcast,360,2014-03-30 01:15:00
8:35 PM,46.4,39.2,76,30.12,10.0,North,10.4,16.1,N/A,,Overcast,350,2014-03-30 01:35:00
8:55 PM,46.4,39.2,76,30.13,10.0,North,9.2,16.1,N/A,,Overcast,10,2014-03-30 01:55:00
9:15 PM,46.4,39.2,76,30.13,10.0,North,6.9,-,N/A,,Overcast,350,2014-03-30 02:15:00
9:35 PM,46.4,39.2,76,30.14,10.0,NNW,6.9,-,N/A,,Overcast,330,2014-03-30 02:35:00
9:55 PM,46.4,37.4,71,30.14,10.0,North,8.1,17.3,N/A,,Overcast,350,2014-03-30 02:55:00
10:15 PM,46.4,37.4,71,30.14,10.0,North,13.8,24.2,N/A,,Overcast,350,2014-03-30 03:15:00
10:35 PM,46.4,37.4,71,30.15,10.0,North,13.8,20.7,N/A,,Overcast,360,2014-03-30 03:35:00
10:55 PM,44.6,37.4,76,30.15,10.0,North,11.5,20.7,N/A,,Overcast,360,2014-03-30 03:55:00
11:15 PM,44.6,37.4,76,30.16,10.0,North,15.0,20.7,N/A,,Overcast,10,2014-03-30 04:15:00
11:35 PM,44.6,37.4,76,30.16,10.0,North,8.1,18.4,N/A,,Overcast,360,2014-03-30 04:35:00
11:55 PM,44.6,35.6,71,30.16,10.0,NNE,12.7,24.2,N/A,,Overcast,20,2014-03-30 04:55:00